createdAt,value
2022-11-03T00:01:36.236Z,97657.56
2022-11-03T00:04:04.537Z,97647.47
2022-11-03T00:06:32.794Z,97637.25
2022-11-03T00:09:01.334Z,97633.31
2022-11-03T00:11:30.115Z,97624.19
2022-11-03T00:13:59.663Z,97633.56
2022-11-03T00:16:28.083Z,97630.00
2022-11-03T00:18:56.723Z,97619.91
2022-11-03T00:21:25.014Z,97614.31
2022-11-03T00:23:53.267Z,97614.78
2022-11-03T00:26:22.626Z,97615.72
2022-11-03T00:28:52.480Z,97615.72
2022-11-03T00:31:23.403Z,97633.47
2022-11-03T00:33:51.642Z,97612.75
2022-11-03T00:36:21.602Z,97605.66
2022-11-03T00:38:49.982Z,97613.34
2022-11-03T00:41:20.487Z,97621.22
2022-11-03T00:43:49.365Z,97617.28
2022-11-03T00:46:18.033Z,97616.81
2022-11-03T00:48:47.633Z,97606.97
2022-11-03T00:51:17.179Z,97613.34
2022-11-03T00:53:47.554Z,97618.81
2022-11-03T00:56:17.141Z,97615.13
2022-11-03T00:58:45.794Z,97612.25
2022-11-03T01:01:16.142Z,97607.25
2022-11-03T01:04:08.224Z,97608.19
2022-11-03T01:06:53.896Z,97603.22
2022-11-03T01:09:24.004Z,97608.34
2022-11-03T01:11:57.562Z,97595.97
2022-11-03T01:14:26.903Z,97599.84
2022-11-03T01:16:55.405Z,97595.63
2022-11-03T01:19:25.542Z,97590.72
2022-11-03T01:21:53.975Z,97585.59
2022-11-03T01:24:22.526Z,97584.63
2022-11-03T01:26:50.727Z,97572.88
2022-11-03T01:29:19.253Z,97564.69
2022-11-03T01:31:47.634Z,97566.09
2022-11-03T01:34:17.364Z,97552.91
2022-11-03T01:36:47.236Z,97547.91
2022-11-03T01:39:16.426Z,97556.22
2022-11-03T01:41:46.944Z,97544.69
2022-11-03T01:44:32.700Z,97539.81
2022-11-03T01:47:12.708Z,97546.22
2022-11-03T01:49:45.538Z,97541.81
2022-11-03T01:52:19.117Z,97552.59
2022-11-03T01:54:50.297Z,97547.69
2022-11-03T01:57:22.658Z,97546.22
2022-11-03T01:59:51.278Z,97545.53
2022-11-03T02:02:19.798Z,97544.66
2022-11-03T02:04:48.375Z,97540.56
2022-11-03T02:07:22.698Z,97521.97
2022-11-03T02:09:50.966Z,97530.16
2022-11-03T02:12:23.786Z,97525.88
2022-11-03T02:14:54.996Z,97521.91
2022-11-03T02:17:24.096Z,97511.56
2022-11-03T02:19:54.239Z,97513.22
2022-11-03T02:22:57.773Z,97510.88
2022-11-03T02:25:36.840Z,97509.66
2022-11-03T02:28:06.385Z,97511.31
2022-11-03T02:30:38.057Z,97499.75
2022-11-03T02:33:12.666Z,97492.06
2022-11-03T02:35:44.607Z,97486.78
2022-11-03T02:38:15.678Z,97490.69
2022-11-03T02:40:49.555Z,97486.84
2022-11-03T02:43:20.516Z,97485.16
2022-11-03T02:45:49.696Z,97479.75
2022-11-03T02:48:19.777Z,97485.97
2022-11-03T02:50:49.041Z,97479.50
2022-11-03T02:53:17.501Z,97481.00
2022-11-03T02:55:54.197Z,97467.97
2022-11-03T02:58:26.578Z,97465.47
2022-11-03T03:00:57.135Z,97465.09
2022-11-03T03:03:28.124Z,97457.22
2022-11-03T03:05:59.925Z,97455.31
2022-11-03T03:08:28.815Z,97461.25
2022-11-03T03:11:00.504Z,97450.31
2022-11-03T03:13:29.165Z,97453.94
2022-11-03T03:16:07.197Z,97464.00
2022-11-03T03:18:43.922Z,97454.50
2022-11-03T03:21:15.039Z,97449.69
2022-11-03T03:23:49.907Z,97446.53
2022-11-03T03:26:23.325Z,97442.28
2022-11-03T03:28:55.233Z,97434.69
2022-11-03T03:31:24.107Z,97443.09
2022-11-03T03:33:59.792Z,97438.97
2022-11-03T03:36:40.185Z,97442.56
2022-11-03T03:39:09.994Z,97433.41
2022-11-03T03:41:39.865Z,97433.81
2022-11-03T03:44:10.476Z,97444.72
2022-11-03T03:46:40.906Z,97441.81
2022-11-03T03:49:09.268Z,97444.00
2022-11-03T03:51:38.375Z,97431.41
2022-11-03T03:54:06.685Z,97426.06
2022-11-03T03:56:38.514Z,97422.91
2022-11-03T03:59:08.714Z,97413.97
2022-11-03T04:01:36.947Z,97415.56
2022-11-03T04:04:05.587Z,97427.84
2022-11-03T04:06:33.938Z,97432.09
2022-11-03T04:09:02.056Z,97433.06
2022-11-03T04:11:47.705Z,97437.56
2022-11-03T04:14:34.955Z,97430.97
2022-11-03T04:17:20.594Z,97429.84
2022-11-03T04:20:06.075Z,97422.16
2022-11-03T04:22:35.297Z,97427.13
2022-11-03T04:25:03.532Z,97429.72
2022-11-03T04:27:33.524Z,97418.31
2022-11-03T04:30:08.637Z,97410.88
2022-11-03T04:32:37.148Z,97407.03
2022-11-03T04:35:12.606Z,97406.34
2022-11-03T04:37:45.007Z,97399.50
2022-11-03T04:40:17.655Z,97393.13
2022-11-03T04:42:46.194Z,97402.38
2022-11-03T04:45:24.294Z,97396.19
2022-11-03T04:47:53.702Z,97389.69
2022-11-03T04:50:23.864Z,97388.97
2022-11-03T04:52:56.655Z,97383.94
2022-11-03T04:55:24.926Z,97391.28
2022-11-03T04:57:56.636Z,97383.16
2022-11-03T05:00:26.382Z,97380.53
2022-11-03T05:02:56.217Z,97376.97
2022-11-03T05:05:26.761Z,97379.13
2022-11-03T05:07:56.045Z,97371.56
2022-11-03T05:10:26.477Z,97369.53
2022-11-03T05:12:55.833Z,97363.88
2022-11-03T05:15:31.777Z,97361.25
2022-11-03T05:18:01.606Z,97355.22
2022-11-03T05:20:36.159Z,97353.16
2022-11-03T05:23:06.098Z,97341.44
2022-11-03T05:25:41.090Z,97324.59
2022-11-03T05:28:21.786Z,97337.75
2022-11-03T05:30:52.644Z,97330.22
2022-11-03T05:33:24.154Z,97332.03
2022-11-03T05:35:52.685Z,97332.97
2022-11-03T05:38:22.528Z,97326.31
2022-11-03T05:40:54.354Z,97323.59
2022-11-03T05:43:22.895Z,97318.19
2022-11-03T05:45:55.124Z,97318.72
2022-11-03T05:48:31.015Z,97314.50
2022-11-03T05:51:00.642Z,97323.81
2022-11-03T05:53:31.487Z,97325.09
2022-11-03T05:56:02.457Z,97318.03
2022-11-03T05:58:32.855Z,97319.13
2022-11-03T06:01:07.034Z,97314.06
2022-11-03T06:03:37.710Z,97309.81
2022-11-03T06:06:14.887Z,97310.88
2022-11-03T06:08:46.005Z,97311.72
2022-11-03T06:11:23.464Z,97307.34
2022-11-03T06:13:51.599Z,97302.00
2022-11-03T06:16:34.146Z,97304.94
2022-11-03T06:19:03.326Z,97306.84
2022-11-03T06:21:32.208Z,97310.47
2022-11-03T06:24:00.764Z,97297.53
2022-11-03T06:26:29.273Z,97295.13
2022-11-03T06:28:57.500Z,97289.84
2022-11-03T06:31:30.336Z,97289.16
2022-11-03T06:33:59.307Z,97296.69
2022-11-03T06:36:29.654Z,97292.56
2022-11-03T06:38:59.386Z,97292.50
2022-11-03T06:41:29.613Z,97276.78
2022-11-03T06:43:57.876Z,97283.00
2022-11-03T06:46:28.035Z,97267.88
2022-11-03T06:49:00.106Z,97273.13
2022-11-03T06:51:30.029Z,97272.72
2022-11-03T06:54:00.225Z,97273.72
2022-11-03T06:56:31.704Z,97269.00
2022-11-03T06:59:00.487Z,97276.75
2022-11-03T07:01:32.793Z,97266.78
2022-11-03T07:04:03.137Z,97259.91
2022-11-03T07:06:33.944Z,97252.19
2022-11-03T07:09:05.022Z,97254.38
2022-11-03T07:11:36.444Z,97247.09
2022-11-03T07:14:12.724Z,97245.88
2022-11-03T07:16:44.754Z,97249.72
2022-11-03T07:19:16.486Z,97245.59
2022-11-03T07:21:47.293Z,97245.44
2022-11-03T07:24:19.853Z,97234.84
2022-11-03T07:26:48.245Z,97227.09
2022-11-03T07:29:20.374Z,97226.09
2022-11-03T07:31:51.643Z,97230.38
2022-11-03T07:34:22.865Z,97228.84
2022-11-03T07:36:55.758Z,97230.78
2022-11-03T07:39:24.590Z,97232.03
2022-11-03T07:41:53.157Z,97229.59
2022-11-03T07:44:21.974Z,97225.03
2022-11-03T07:46:52.359Z,97235.50
2022-11-03T07:49:28.835Z,97227.56
2022-11-03T07:51:58.359Z,97220.75
2022-11-03T07:54:30.695Z,97218.59
2022-11-03T07:57:00.561Z,97207.28
2022-11-03T07:59:30.837Z,97206.63
2022-11-03T08:02:00.931Z,97201.75
2022-11-03T08:04:31.024Z,97204.03
2022-11-03T08:06:59.265Z,97192.41
2022-11-03T08:09:27.474Z,97185.31
2022-11-03T08:11:55.634Z,97179.66
2022-11-03T08:14:23.835Z,97173.75
2022-11-03T08:16:51.955Z,97170.94
2022-11-03T08:19:21.513Z,97164.84
2022-11-03T08:21:50.021Z,97161.97
2022-11-03T08:24:18.184Z,97160.28
2022-11-03T08:26:46.426Z,97153.94
2022-11-03T08:29:14.736Z,97155.59
2022-11-03T08:31:42.917Z,97152.28
2022-11-03T08:34:11.085Z,97150.84
2022-11-03T08:36:40.733Z,97140.50
2022-11-03T08:39:08.915Z,97136.28
2022-11-03T08:41:37.095Z,97120.31
2022-11-03T08:44:05.701Z,97108.47
2022-11-03T08:46:33.934Z,97105.66
2022-11-03T08:49:02.776Z,97097.03
2022-11-03T08:51:30.956Z,97084.22
2022-11-03T08:54:00.484Z,97088.22
2022-11-03T08:56:28.664Z,97078.63
2022-11-03T08:58:56.855Z,97071.56
2022-11-03T09:01:25.050Z,97074.06
2022-11-03T09:03:53.872Z,97056.13
2022-11-03T09:06:22.084Z,97054.72
2022-11-03T09:11:40.222Z,97053.69
2022-11-03T09:14:08.414Z,97050.91
2022-11-03T09:16:36.596Z,97043.69
2022-11-03T09:19:04.795Z,97047.84
2022-11-03T09:21:32.913Z,97040.84
2022-11-03T09:24:01.134Z,97024.25
2022-11-03T09:26:29.554Z,97029.03
2022-11-03T09:28:59.078Z,97014.94
2022-11-03T09:31:28.695Z,97009.91
2022-11-03T09:33:57.332Z,97008.41
2022-11-03T09:36:25.635Z,97006.56
2022-11-03T09:38:53.815Z,97000.22
2022-11-03T09:41:27.850Z,97003.59
2022-11-03T09:44:04.913Z,96998.00
2022-11-03T09:46:33.395Z,96999.41
2022-11-03T09:49:01.525Z,96994.03
2022-11-03T09:51:29.995Z,96993.81
2022-11-03T09:53:59.734Z,96988.28
2022-11-03T09:56:28.192Z,96978.00
2022-11-03T09:58:56.366Z,96973.97
2022-11-03T10:01:26.427Z,96977.06
2022-11-03T10:03:57.638Z,96973.16
2022-11-03T10:06:25.793Z,96956.59
2022-11-03T10:08:54.225Z,96951.09
2022-11-03T10:11:22.363Z,96946.00
2022-11-03T10:13:53.434Z,96948.91
2022-11-03T10:16:23.424Z,96942.16
2022-11-03T10:18:53.755Z,96934.56
2022-11-03T10:21:24.826Z,96928.25
2022-11-03T10:23:53.032Z,96925.03
2022-11-03T10:26:23.396Z,96913.78
2022-11-03T10:29:04.036Z,96914.22
2022-11-03T10:31:36.856Z,96909.06
2022-11-03T10:34:07.007Z,96915.00
2022-11-03T10:36:35.687Z,96902.41
2022-11-03T10:39:25.354Z,96909.50
2022-11-03T10:41:57.856Z,96907.22
2022-11-03T10:44:28.485Z,96911.09
2022-11-03T10:47:00.597Z,96907.00
2022-11-03T10:49:31.518Z,96902.22
2022-11-03T10:52:07.815Z,96896.34
2022-11-03T10:54:38.136Z,96894.16
2022-11-03T10:57:06.555Z,96889.59
2022-11-03T10:59:37.744Z,96883.09
2022-11-03T11:02:16.332Z,96871.94
2022-11-03T11:04:47.296Z,96874.97
2022-11-03T11:07:21.714Z,96873.53
2022-11-03T11:09:49.993Z,96862.56
2022-11-03T11:12:19.499Z,96860.72
2022-11-03T11:14:55.984Z,96862.00
2022-11-03T11:17:47.837Z,96855.56
2022-11-03T11:20:41.683Z,96855.38
2022-11-03T11:23:49.175Z,96855.97
2022-11-03T11:26:41.393Z,96853.50
2022-11-03T11:29:43.281Z,96849.66
2022-11-03T11:32:48.439Z,96841.72
2022-11-03T11:36:04.347Z,96835.81
2022-11-03T11:39:09.491Z,96840.09
2022-11-03T11:42:13.540Z,96840.22
2022-11-03T11:44:59.358Z,96834.91
2022-11-03T11:47:49.216Z,96825.09
2022-11-03T11:50:32.785Z,96815.69
2022-11-03T11:53:11.424Z,96821.28
2022-11-03T11:55:47.066Z,96814.63
2022-11-03T11:58:39.429Z,96811.97
2022-11-03T12:01:23.830Z,96804.81
2022-11-03T12:03:53.578Z,96800.81
2022-11-03T12:06:34.679Z,96794.03
2022-11-03T12:09:07.441Z,96791.66
2022-11-03T12:11:46.009Z,96784.81
2022-11-03T12:14:25.808Z,96777.69
2022-11-03T12:16:54.228Z,96762.38
2022-11-03T12:19:42.104Z,96751.56
2022-11-03T12:22:11.484Z,96755.63
2022-11-03T12:24:50.881Z,96747.31
2022-11-03T12:27:36.897Z,96749.16
2022-11-03T12:30:08.836Z,96745.06
2022-11-03T12:32:36.976Z,96748.34
2022-11-03T12:35:06.107Z,96739.97
2022-11-03T12:37:34.267Z,96734.19
2022-11-03T12:40:02.467Z,96735.06
2022-11-03T12:42:32.136Z,96732.63
2022-11-03T12:45:00.263Z,96723.19
2022-11-03T12:47:28.504Z,96725.66
2022-11-03T12:49:56.607Z,96722.75
2022-11-03T12:52:24.763Z,96717.22
2022-11-03T12:54:52.885Z,96716.50
2022-11-03T12:57:21.227Z,96711.03
2022-11-03T12:59:51.578Z,96706.38
2022-11-03T13:02:19.872Z,96710.69
2022-11-03T13:04:48.073Z,96707.69
2022-11-03T13:07:20.390Z,96705.56
2022-11-03T13:09:52.377Z,96696.34
2022-11-03T13:12:32.576Z,96699.41
2022-11-03T13:15:03.175Z,96696.38
2022-11-03T13:17:40.196Z,96682.31
2022-11-03T13:20:16.432Z,96678.81
2022-11-03T13:22:44.774Z,96665.03
2022-11-03T13:25:12.921Z,96673.47
2022-11-03T13:27:41.245Z,96672.13
2022-11-03T13:30:12.243Z,96671.13
2022-11-03T13:32:40.333Z,96668.28
2022-11-03T13:35:13.720Z,96656.84
2022-11-03T13:37:42.716Z,96660.31
2022-11-03T13:40:29.444Z,96649.69
2022-11-03T13:43:00.507Z,96644.59
2022-11-03T13:45:30.415Z,96646.22
2022-11-03T13:50:47.046Z,96645.59
2022-11-03T13:56:08.610Z,96638.22
2022-11-03T14:01:27.356Z,96633.09
2022-11-03T14:06:43.904Z,96612.84
2022-11-03T14:09:12.063Z,96602.03
2022-11-03T14:11:57.703Z,96586.91
2022-11-03T14:14:25.823Z,96595.09
2022-11-03T14:16:55.408Z,96576.31
2022-11-03T14:19:30.803Z,96579.38
2022-11-03T14:22:01.725Z,96582.00
2022-11-03T14:24:29.892Z,96594.41
2022-11-03T14:26:58.005Z,96592.75
2022-11-03T14:29:27.222Z,96583.59
2022-11-03T14:31:56.774Z,96578.44
2022-11-03T14:34:25.012Z,96584.94
2022-11-03T14:36:53.344Z,96580.78
2022-11-03T14:39:21.854Z,96568.13
2022-11-03T14:42:05.383Z,96573.38
2022-11-03T14:44:34.394Z,96572.75
2022-11-03T14:47:05.053Z,96569.88
2022-11-03T14:49:33.975Z,96574.13
2022-11-03T14:52:02.925Z,96574.09
2022-11-03T14:54:31.798Z,96567.72
2022-11-03T14:57:00.295Z,96573.41
2022-11-03T14:59:28.443Z,96569.72
2022-11-03T15:01:56.981Z,96560.28
2022-11-03T15:04:27.136Z,96566.41
2022-11-03T15:06:55.793Z,96559.88
2022-11-03T15:09:24.134Z,96551.88
2022-11-03T15:11:52.239Z,96558.56
2022-11-03T15:14:20.567Z,96553.28
2022-11-03T15:16:49.161Z,96550.56
2022-11-03T15:19:17.503Z,96548.25
2022-11-03T15:21:47.063Z,96555.31
2022-11-03T15:27:03.367Z,96537.91
2022-11-03T15:29:31.508Z,96533.81
2022-11-03T15:31:59.698Z,96526.66
2022-11-03T15:34:27.825Z,96513.56
2022-11-03T15:36:58.822Z,96513.31
2022-11-03T15:39:29.917Z,96512.91
2022-11-03T15:42:00.704Z,96508.09
2022-11-03T15:44:28.953Z,96501.13
2022-11-03T15:46:57.888Z,96501.31
2022-11-03T15:49:26.207Z,96488.03
2022-11-03T15:51:54.303Z,96480.66
2022-11-03T15:54:24.012Z,96476.38
2022-11-03T15:56:52.315Z,96472.50
2022-11-03T15:59:20.818Z,96469.59
2022-11-03T16:01:49.447Z,96452.75
2022-11-03T16:04:17.787Z,96458.41
2022-11-03T16:07:06.656Z,96465.50
2022-11-03T16:09:35.535Z,96455.50
2022-11-03T16:12:03.708Z,96453.06
2022-11-03T16:14:31.913Z,96454.81
2022-11-03T16:17:00.104Z,96448.69
2022-11-03T16:19:28.335Z,96438.91
2022-11-03T16:21:56.484Z,96451.25
2022-11-03T16:24:29.666Z,96441.66
2022-11-03T16:27:05.144Z,96436.81
2022-11-03T16:29:33.277Z,96433.38
2022-11-03T16:32:01.474Z,96423.63
2022-11-03T16:34:29.628Z,96417.91
2022-11-03T16:36:57.917Z,96427.84
2022-11-03T16:39:26.052Z,96420.31
2022-11-03T16:41:55.397Z,96412.19
2022-11-03T16:44:25.084Z,96397.09
2022-11-03T16:46:53.315Z,96400.38
2022-11-03T16:49:21.554Z,96401.56
2022-11-03T16:51:49.805Z,96406.41
2022-11-03T16:54:17.972Z,96394.63
2022-11-03T16:56:50.582Z,96388.94
2022-11-03T16:59:24.502Z,96383.66
2022-11-03T17:01:54.349Z,96374.75
2022-11-03T17:04:22.695Z,96374.13
2022-11-03T17:06:50.850Z,96375.56
2022-11-03T17:09:19.015Z,96370.28
2022-11-03T17:11:47.405Z,96359.84
2022-11-03T17:14:15.831Z,96347.41
2022-11-03T17:16:46.761Z,96341.13
2022-11-03T17:19:16.725Z,96335.06
2022-11-03T17:21:45.304Z,96327.88
2022-11-03T17:24:13.759Z,96328.69
2022-11-03T17:26:51.501Z,96330.06
2022-11-03T17:29:21.524Z,96304.63
2022-11-03T17:31:51.028Z,96306.66
2022-11-03T17:34:24.814Z,96302.94
2022-11-03T17:36:54.136Z,96308.56
2022-11-03T17:39:29.456Z,96303.38
2022-11-03T17:42:03.434Z,96297.91
2022-11-03T17:44:32.132Z,96291.28
2022-11-03T17:47:00.384Z,96293.53
2022-11-03T17:49:30.044Z,96277.09
2022-11-03T17:51:59.573Z,96271.88
2022-11-03T17:54:29.623Z,96268.97
2022-11-03T17:56:58.175Z,96264.09
2022-11-03T17:59:26.524Z,96259.66
2022-11-03T18:01:55.886Z,96251.47
2022-11-03T18:04:24.677Z,96246.41
2022-11-03T18:06:54.382Z,96237.59
2022-11-03T18:09:23.184Z,96241.66
2022-11-03T18:12:08.815Z,96231.97
2022-11-03T18:14:36.967Z,96245.31
2022-11-03T18:17:05.184Z,96238.28
2022-11-03T18:19:33.406Z,96239.09
2022-11-03T18:22:03.093Z,96233.47
2022-11-03T18:24:34.533Z,96226.94
2022-11-03T18:27:02.746Z,96227.19
2022-11-03T18:29:31.024Z,96225.44
2022-11-03T18:32:01.232Z,96219.47
2022-11-03T18:34:29.704Z,96221.00
2022-11-03T18:36:58.046Z,96215.69
2022-11-03T18:39:30.677Z,96209.59
2022-11-03T18:41:58.903Z,96214.63
2022-11-03T18:44:29.255Z,96205.44
2022-11-03T18:46:58.214Z,96206.00
2022-11-03T18:49:27.611Z,96205.56
2022-11-03T18:52:02.817Z,96202.09
2022-11-03T18:54:34.728Z,96191.16
2022-11-03T18:57:03.254Z,96185.22
2022-11-03T18:59:33.183Z,96177.16
2022-11-03T19:02:01.586Z,96173.88
2022-11-03T19:04:32.045Z,96174.88
2022-11-03T19:07:00.644Z,96167.63
2022-11-03T19:09:28.884Z,96160.88
2022-11-03T19:11:59.214Z,96165.06
2022-11-03T19:14:31.544Z,96154.31
2022-11-03T19:17:21.760Z,96153.91
2022-11-03T19:19:48.165Z,96145.16
2022-11-03T19:22:18.155Z,96140.72
2022-11-03T19:24:46.754Z,96137.47
2022-11-03T19:27:18.905Z,96128.56
2022-11-03T19:29:47.536Z,96120.75
2022-11-03T19:32:20.392Z,96116.69
2022-11-03T19:34:51.548Z,96134.25
2022-11-03T19:37:19.711Z,96124.34
2022-11-03T19:39:48.614Z,96123.50
2022-11-03T19:42:33.227Z,96130.78
2022-11-03T19:45:02.958Z,96126.34
2022-11-03T19:47:34.864Z,96131.78
2022-11-03T19:50:04.704Z,96112.81
2022-11-03T19:52:33.320Z,96110.19
2022-11-03T19:55:05.785Z,96096.56
2022-11-03T19:57:35.324Z,96081.38
2022-11-03T20:00:03.549Z,96074.09
2022-11-03T20:02:31.822Z,96068.09
2022-11-03T20:05:00.311Z,96057.16
2022-11-03T20:07:31.902Z,96052.72
2022-11-03T20:10:01.496Z,96051.72
2022-11-03T20:12:30.952Z,96041.38
2022-11-03T20:15:00.474Z,96039.00
2022-11-03T20:17:28.716Z,96031.34
2022-11-03T20:19:57.221Z,96032.34
2022-11-03T20:22:29.333Z,96017.78
2022-11-03T20:24:59.523Z,96020.44
2022-11-03T20:27:27.752Z,96018.59
2022-11-03T20:29:56.198Z,96020.50
2022-11-03T20:32:25.777Z,96023.38
2022-11-03T20:34:54.044Z,96016.06
2022-11-03T20:37:22.303Z,96021.75
2022-11-03T20:39:50.963Z,96012.84
2022-11-03T20:42:21.825Z,96006.56
2022-11-03T20:44:50.126Z,96013.28
2022-11-03T20:47:18.693Z,96005.94
2022-11-03T20:49:48.694Z,96004.72
2022-11-03T20:52:17.256Z,96001.44
2022-11-03T20:54:46.341Z,95992.94
2022-11-03T20:57:14.966Z,95997.00
2022-11-03T20:59:43.113Z,95990.28
2022-11-03T21:02:12.539Z,95986.03
2022-11-03T21:04:41.100Z,95984.16
2022-11-03T21:07:13.548Z,95976.69
2022-11-03T21:09:41.777Z,95974.03
2022-11-03T21:12:13.073Z,95963.47
2022-11-03T21:15:03.233Z,95966.34
2022-11-03T21:17:45.844Z,95957.59
2022-11-03T21:20:14.044Z,95951.47
2022-11-03T21:22:53.305Z,95947.22
2022-11-03T21:25:23.539Z,95951.03
2022-11-03T21:27:52.404Z,95950.66
2022-11-03T21:30:21.055Z,95939.31
2022-11-03T21:32:49.264Z,95941.28
2022-11-03T21:35:19.417Z,95937.66
2022-11-03T21:37:49.144Z,95938.66
2022-11-03T21:40:17.813Z,95942.31
2022-11-03T21:43:03.290Z,95941.28
2022-11-03T21:45:31.454Z,95931.34
2022-11-03T21:48:17.238Z,95925.03
2022-11-03T21:50:46.456Z,95925.47
2022-11-03T21:53:16.024Z,95926.09
2022-11-03T21:55:44.245Z,95915.34
2022-11-03T21:58:12.544Z,95911.13
2022-11-03T22:00:40.845Z,95891.84
2022-11-03T22:03:09.161Z,95896.28
2022-11-03T22:05:38.404Z,95891.00
2022-11-03T22:08:08.584Z,95897.44
2022-11-03T22:10:40.924Z,95883.72
2022-11-03T22:13:10.030Z,95881.81
2022-11-03T22:15:56.089Z,95890.72
2022-11-03T22:18:24.776Z,95887.47
2022-11-03T22:21:10.922Z,95889.09
2022-11-03T22:24:08.145Z,95888.03
2022-11-03T22:26:52.025Z,95891.88
2022-11-03T22:29:37.573Z,95878.09
2022-11-03T22:32:07.094Z,95877.19
2022-11-03T22:34:52.637Z,95879.41
2022-11-03T22:37:21.060Z,95874.31
2022-11-03T22:40:06.683Z,95874.16
2022-11-03T22:42:53.914Z,95868.88
2022-11-03T22:45:39.664Z,95866.88
2022-11-03T22:48:08.213Z,95862.78
2022-11-03T22:50:36.309Z,95872.69
2022-11-03T22:53:25.269Z,95872.69
2022-11-03T22:55:52.677Z,95874.31
2022-11-03T22:58:24.337Z,95866.50
2022-11-03T23:00:56.215Z,95865.28
2022-11-03T23:03:24.327Z,95886.59
2022-11-03T23:05:52.478Z,95886.41
2022-11-03T23:08:20.651Z,95884.63
2022-11-03T23:10:48.868Z,95891.13
2022-11-03T23:13:17.288Z,95893.19
2022-11-03T23:15:46.828Z,95903.16
2022-11-03T23:18:37.528Z,95894.25
2022-11-03T23:21:08.592Z,95893.91
2022-11-03T23:23:54.848Z,95907.66
2022-11-03T23:26:24.006Z,95911.63
2022-11-03T23:28:52.386Z,95895.44
2022-11-03T23:31:21.898Z,95873.38
2022-11-03T23:33:50.084Z,95875.81
2022-11-03T23:36:18.757Z,95880.25
2022-11-03T23:38:47.387Z,95880.84
2022-11-03T23:41:16.814Z,95868.31
2022-11-03T23:43:46.482Z,95857.56
2022-11-03T23:46:34.227Z,95859.97
2022-11-03T23:49:04.058Z,95857.78
2022-11-03T23:51:33.146Z,95855.78
2022-11-03T23:54:01.830Z,95858.81
2022-11-03T23:56:49.718Z,95871.78
2022-11-03T23:59:18.265Z,95886.19
